Time;durP1;ratioP1;P1;durP2;ratioP2;P2;SDS_P1;SDS_P2;PMS_P1;PMS_P2;Temp;Humidity;BMP_temperature;BMP_pressure;BME280_temperature;BME280_humidity;BME280_pressure;Samples;Min_cycle;Max_cycle;Signal;HPM_P1;HPM_P2
2022/09/14 00:01:20;;;;;;;4.93;0.93;;;;;;;21.39;39.04;99718.50;10110769;29;20250;-84
2022/09/14 00:06:42;;;;;;;4.28;0.68;;;;;;;20.74;39.41;99720.25;10135087;29;20236;-80
2022/09/14 00:12:04;;;;;;;3.13;0.63;;;;;;;21.38;38.38;99714.84;10135731;29;20193;-80
2022/09/14 00:17:26;;;;;;;2.83;0.63;;;;;;;20.05;40.13;99716.13;10131794;29;20630;-80
2022/09/14 00:22:48;;;;;;;3.13;0.70;;;;;;;21.25;37.95;99705.09;10112685;29;20320;-80
2022/09/14 00:28:10;;;;;;;7.95;0.82;;;;;;;20.65;38.84;99702.72;10119370;29;20683;-80
2022/09/14 00:33:33;;;;;;;5.68;0.98;;;;;;;20.53;39.25;99694.63;10136227;29;20738;-80
2022/09/14 00:38:55;;;;;;;3.13;0.68;;;;;;;20.56;39.10;99676.63;10116881;29;20245;-86
2022/09/14 00:44:17;;;;;;;3.25;0.70;;;;;;;20.92;37.81;99675.13;10132720;29;20248;-81
2022/09/14 00:49:41;;;;;;;5.38;0.82;;;;;;;21.04;37.67;99680.34;10134089;29;20301;-83
2022/09/14 00:55:07;;;;;;;4.55;0.60;;;;;;;20.85;37.95;99680.09;10119904;29;20233;-82
2022/09/14 01:00:30;;;;;;;4.15;0.68;;;;;;;20.57;38.56;99666.78;10119539;29;20570;-81
2022/09/14 01:06:07;;;;;;;6.78;1.00;;;;;;;20.60;38.78;99660.22;10133767;29;20304;-85
2022/09/14 01:11:56;;;;;;;4.88;0.70;;;;;;;20.87;37.47;99655.53;10122491;29;20662;-81
2022/09/14 01:17:27;;;;;;;6.53;0.70;;;;;;;20.96;37.31;99643.56;10127194;29;20273;-80
2022/09/14 01:23:00;;;;;;;6.88;0.95;;;;;;;20.48;38.20;99643.53;10085926;29;20518;-80
2022/09/14 01:28:42;;;;;;;3.90;0.82;;;;;;;20.35;39.42;99643.22;10130963;29;20648;-86
2022/09/14 01:34:11;;;;;;;4.68;0.70;;;;;;;20.56;38.46;99636.53;10110173;29;20204;-81
2022/09/14 01:39:34;;;;;;;8.77;0.98;;;;;;;20.08;39.46;99634.38;10122507;29;20760;-80
2022/09/14 01:45:00;;;;;;;5.13;0.80;;;;;;;20.27;39.21;99636.75;10138360;29;20248;-80
2022/09/14 01:50:27;;;;;;;7.50;1.05;;;;;;;20.03;41.68;99629.09;10117659;29;20257;-81
2022/09/14 01:55:57;;;;;;;5.93;0.88;;;;;;;19.49;43.66;99625.66;10117842;29;20221;-80
2022/09/14 02:01:41;;;;;;;6.78;0.90;;;;;;;19.45;43.52;99626.88;10130129;29;20229;-85
2022/09/14 02:07:03;;;;;;;4.65;0.95;;;;;;;19.24;44.88;99624.91;10124293;29;20276;-79
2022/09/14 02:12:25;;;;;;;6.68;0.80;;;;;;;19.24;45.40;99624.91;10122841;29;20623;-85
2022/09/14 02:17:48;;;;;;;6.93;1.15;;;;;;;19.06;45.59;99618.41;10118898;29;20225;-85
2022/09/14 02:23:10;;;;;;;4.22;1.00;;;;;;;18.99;45.23;99620.06;10118071;29;20225;-84
2022/09/14 02:28:32;;;;;;;4.28;1.05;;;;;;;19.11;45.38;99615.97;10135102;29;20221;-79
2022/09/14 02:34:27;;;;;;;4.00;1.50;;;;;;;19.20;46.59;99607.78;10127912;29;20273;-84
2022/09/14 02:40:14;;;;;;;8.38;1.02;;;;;;;18.97;47.04;99611.09;10103761;29;20265;-80
2022/09/14 02:45:57;;;;;;;5.63;1.15;;;;;;;19.22;46.80;99604.50;10136998;29;20281;-80
2022/09/14 02:51:38;;;;;;;6.38;1.58;;;;;;;19.06;46.85;99604.13;10121151;29;20264;-85
2022/09/14 02:57:01;;;;;;;5.70;1.23;;;;;;;19.38;45.31;99599.16;10138011;29;20225;-80
2022/09/14 03:02:23;;;;;;;7.88;1.35;;;;;;;19.62;44.64;99583.16;10138697;29;20209;-83
2022/09/14 03:07:45;;;;;;;4.00;1.08;;;;;;;19.55;45.37;99586.00;10138969;29;20248;-81
2022/09/14 03:13:07;;;;;;;5.18;1.30;;;;;;;19.53;45.92;99574.97;10125216;29;20559;-79
2022/09/14 03:18:29;;;;;;;6.43;1.48;;;;;;;19.64;45.51;99581.53;10124665;29;20229;-80
2022/09/14 03:23:54;;;;;;;5.18;1.00;;;;;;;19.50;46.18;99575.84;10120589;29;20268;-80
2022/09/14 03:29:15;;;;;;;8.07;1.02;;;;;;;19.41;46.32;99575.44;10139482;29;20268;-80
2022/09/14 03:34:38;;;;;;;6.50;0.97;;;;;;;19.65;44.13;99565.97;10132728;29;20494;-79
2022/09/14 03:40:00;;;;;;;6.22;1.33;;;;;;;19.73;44.60;99567.56;10137531;29;20292;-79
2022/09/14 03:45:22;;;;;;;4.38;1.05;;;;;;;19.74;46.05;99565.53;10145166;29;20244;-80
2022/09/14 03:50:45;;;;;;;6.55;1.13;;;;;;;19.62;45.68;99555.38;10123634;29;20614;-82
2022/09/14 03:56:15;;;;;;;8.32;1.65;;;;;;;19.37;46.48;99566.09;10137192;29;20224;-86
2022/09/14 04:01:37;;;;;;;10.18;2.22;;;;;;;19.36;46.19;99553.03;10106491;29;20297;-85
2022/09/14 04:06:59;;;;;;;6.20;1.50;;;;;;;19.50;46.47;99547.25;10135379;29;20229;-79
2022/09/14 04:12:21;;;;;;;7.28;1.25;;;;;;;19.51;47.01;99546.03;10134533;29;20551;-80
2022/09/14 04:17:44;;;;;;;4.55;1.10;;;;;;;18.83;49.11;99542.56;10144329;29;20236;-81
2022/09/14 04:23:06;;;;;;;4.55;1.48;;;;;;;18.55;49.21;99542.59;10168537;29;20228;-78
2022/09/14 04:28:28;;;;;;;5.73;1.30;;;;;;;18.44;49.59;99536.09;10133348;29;20253;-78
2022/09/14 04:33:50;;;;;;;6.77;1.20;;;;;;;18.81;49.93;99542.16;10130419;29;20559;-79
2022/09/14 04:39:15;;;;;;;8.30;1.60;;;;;;;18.58;49.98;99547.50;10141287;29;20220;-79
2022/09/14 04:44:37;;;;;;;6.78;1.08;;;;;;;19.49;46.83;99545.63;10129156;29;20327;-79
2022/09/14 04:50:00;;;;;;;11.73;1.60;;;;;;;18.47;49.21;99546.69;10156987;29;20606;-80
2022/09/14 04:55:23;;;;;;;4.07;0.95;;;;;;;18.63;49.45;99538.50;10110119;29;20229;-79
2022/09/14 05:00:45;;;;;;;8.02;1.33;;;;;;;18.64;49.95;99534.44;10125411;29;20228;-80
2022/09/14 05:06:17;;;;;;;5.35;0.93;;;;;;;18.62;49.93;99542.59;10113303;29;20331;-79
2022/09/14 05:11:40;;;;;;;8.63;1.65;;;;;;;19.36;47.23;99535.88;10131291;29;20291;-79
2022/09/14 05:17:03;;;;;;;6.75;1.60;;;;;;;18.66;48.70;99546.25;10131188;29;20244;-83
2022/09/14 05:22:25;;;;;;;5.53;1.60;;;;;;;18.93;47.93;99541.75;10115816;29;20705;-79
2022/09/14 05:27:47;;;;;;;5.50;1.60;;;;;;;18.55;46.59;99536.91;10116108;29;20285;-80
2022/09/14 05:33:09;;;;;;;5.65;1.80;;;;;;;18.77;47.64;99544.19;10131088;29;20298;-79
2022/09/14 05:38:33;;;;;;;5.80;1.67;;;;;;;19.01;48.94;99531.91;10142078;29;20549;-80
2022/09/14 05:43:55;;;;;;;5.47;1.75;;;;;;;18.63;48.98;99524.22;10134830;29;20264;-80
2022/09/14 05:49:17;;;;;;;5.70;1.63;;;;;;;18.87;47.68;99537.66;10142766;29;20307;-79
2022/09/14 05:54:39;;;;;;;12.88;2.15;;;;;;;18.91;47.76;99537.63;10133003;29;20303;-79
2022/09/14 06:00:02;;;;;;;8.68;1.85;;;;;;;18.90;49.21;99536.81;10130615;29;20244;-80
2022/09/14 06:05:24;;;;;;;11.80;1.93;;;;;;;18.97;49.11;99542.56;10140526;29;20605;-79
2022/09/14 06:10:46;;;;;;;9.27;2.47;;;;;;;19.13;49.00;99542.09;10148298;29;20237;-79
2022/09/14 06:16:11;;;;;;;7.67;1.90;;;;;;;18.90;50.05;99539.69;10144933;29;20327;-79
2022/09/14 06:21:33;;;;;;;6.93;2.47;;;;;;;19.07;48.97;99535.19;10140533;29;20252;-83
2022/09/14 06:26:56;;;;;;;8.63;1.63;;;;;;;18.77;49.11;99532.78;10146664;29;21064;-79
2022/09/14 06:32:18;;;;;;;6.55;1.77;;;;;;;18.72;49.78;99530.34;10143970;29;20649;-79
2022/09/14 06:37:40;;;;;;;7.25;2.05;;;;;;;18.81;50.01;99530.72;10149361;29;20231;-79
2022/09/14 06:43:02;;;;;;;4.75;1.70;;;;;;;18.61;50.04;99549.53;10148153;29;20268;-80
2022/09/14 06:48:25;;;;;;;6.88;1.73;;;;;;;18.52;49.73;99543.41;10144066;29;20637;-80
2022/09/14 06:53:48;;;;;;;5.37;1.83;;;;;;;18.27;50.54;99554.81;10126800;29;20233;-83
2022/09/14 06:59:12;;;;;;;4.20;1.53;;;;;;;18.52;49.66;99551.97;10141633;29;20621;-81
2022/09/14 07:04:35;;;;;;;5.60;1.67;;;;;;;18.67;49.18;99554.41;10146331;29;20224;-80
2022/09/14 07:09:57;;;;;;;9.15;2.35;;;;;;;18.79;49.32;99553.16;10164779;29;20240;-80
2022/09/14 07:15:20;;;;;;;5.05;1.73;;;;;;;17.79;52.03;99569.41;10150300;29;20267;-79
2022/09/14 07:20:42;;;;;;;8.20;2.40;;;;;;;17.95;52.20;99583.31;10152136;29;20252;-80
2022/09/14 07:26:10;;;;;;;8.13;2.07;;;;;;;18.32;49.95;99572.38;10150226;29;20284;-79
2022/09/14 07:31:46;;;;;;;7.70;2.40;;;;;;;18.11;50.58;99575.16;10129818;29;20296;-80
2022/09/14 07:37:09;;;;;;;8.70;2.63;;;;;;;17.84;52.04;99571.84;10118360;29;20228;-80
2022/09/14 07:42:31;;;;;;;6.87;1.70;;;;;;;17.49;52.04;99572.53;10112102;29;20232;-83
2022/09/14 07:47:55;;;;;;;9.77;1.93;;;;;;;17.55;51.78;99570.13;10129700;29;20288;-80
2022/09/14 07:53:17;;;;;;;8.03;1.60;;;;;;;17.74;52.02;99566.13;10119417;29;20602;-80
2022/09/14 07:58:39;;;;;;;5.93;1.42;;;;;;;17.39;52.10;99567.63;10112912;29;20646;-80
2022/09/14 08:04:02;;;;;;;6.53;1.83;;;;;;;17.75;51.94;99564.91;10137166;29;20288;-80
2022/09/14 08:09:24;;;;;;;7.93;1.93;;;;;;;17.39;52.05;99561.94;10129557;29;20280;-80
2022/09/14 08:14:46;;;;;;;6.15;2.00;;;;;;;17.01;52.94;99559.72;10134520;29;20252;-81
2022/09/14 08:20:08;;;;;;;6.70;1.60;;;;;;;17.25;52.22;99561.88;10154686;29;20479;-80
2022/09/14 08:25:31;;;;;;;3.67;1.70;;;;;;;17.35;52.56;99561.09;10140961;29;20645;-80
2022/09/14 08:30:52;;;;;;;6.38;2.20;;;;;;;16.45;55.22;99552.41;10164333;29;20216;-81
2022/09/14 08:36:17;;;;;;;4.47;2.57;;;;;;;17.58;51.57;99544.47;10138301;29;20304;-80
2022/09/14 08:41:42;;;;;;;6.43;2.60;;;;;;;17.44;53.22;99541.63;10153018;29;20236;-81
2022/09/14 08:47:09;;;;;;;6.20;3.27;;;;;;;17.44;52.89;99541.63;10175885;29;20259;-81
2022/09/14 08:52:47;;;;;;;6.40;3.43;;;;;;;17.68;52.97;99544.97;10161798;29;20292;-81
2022/09/14 08:58:08;;;;;;;7.33;2.83;;;;;;;17.50;52.82;99540.00;10155591;29;20217;-81
2022/09/14 09:03:35;;;;;;;3.10;1.37;;;;;;;17.91;50.34;99536.88;10174207;29;20235;-81
2022/09/14 09:09:06;;;;;;;3.25;1.38;;;;;;;16.91;52.28;99541.34;10142744;29;20259;-81
2022/09/14 09:14:45;;;;;;;3.90;1.17;;;;;;;17.30;51.96;99541.56;10161056;29;20248;-81
2022/09/14 09:20:17;;;;;;;7.53;1.70;;;;;;;17.87;50.58;99524.63;10140131;29;20283;-81
2022/09/14 09:25:59;;;;;;;8.90;2.50;;;;;;;16.55;54.29;99528.91;10153702;29;20268;-80
2022/09/14 09:31:31;;;;;;;6.50;1.77;;;;;;;17.59;50.38;99529.00;10141316;29;20275;-81
2022/09/14 09:37:15;;;;;;;4.70;1.00;;;;;;;17.58;50.22;99533.09;10127485;29;20602;-82
2022/09/14 09:43:09;;;;;;;4.40;1.00;;;;;;;17.91;49.14;99534.00;10150253;29;20281;-82
2022/09/14 09:48:38;;;;;;;1.77;1.13;;;;;;;17.03;51.31;99537.38;10123044;29;20252;-82
2022/09/14 09:54:13;;;;;;;2.27;0.80;;;;;;;16.55;53.17;99528.91;10092287;29;20558;-84
2022/09/14 09:59:40;;;;;;;4.87;0.77;;;;;;;17.94;50.99;99533.22;10123772;29;20224;-83
2022/09/14 10:05:17;;;;;;;4.30;1.08;;;;;;;17.34;52.48;99536.66;10129352;29;20224;-82
2022/09/14 10:10:41;;;;;;;5.43;2.07;;;;;;;18.06;50.74;99535.66;10119878;29;20471;-81
2022/09/14 10:16:06;;;;;;;6.43;2.67;;;;;;;18.12;50.21;99541.75;10135368;29;20273;-82
2022/09/14 10:21:30;;;;;;;5.27;2.07;;;;;;;17.91;51.21;99531.16;10118955;29;20265;-81
2022/09/14 10:26:52;;;;;;;3.25;0.80;;;;;;;17.55;50.88;99535.94;10124769;29;20618;-82
2022/09/14 10:32:22;;;;;;;2.83;0.70;;;;;;;17.52;49.48;99526.16;10130142;29;20205;-84
2022/09/14 10:37:49;;;;;;;4.03;0.93;;;;;;;17.94;50.21;99524.66;10109073;29;20221;-84
2022/09/14 10:43:15;;;;;;;9.03;1.50;;;;;;;17.49;51.14;99526.97;10109432;29;20261;-83
2022/09/14 10:49:19;;;;;;;6.53;1.30;;;;;;;17.65;50.73;99525.81;10111985;29;20244;-83
2022/09/14 10:55:02;;;;;;;3.37;0.80;;;;;;;17.07;52.25;99529.63;10087701;29;20265;-84
2022/09/14 11:00:41;;;;;;;3.03;0.70;;;;;;;17.79;50.32;99520.97;10117396;29;20252;-81
2022/09/14 11:06:32;;;;;;;3.43;0.90;;;;;;;17.81;50.57;99521.38;10133987;29;20258;-84
2022/09/14 11:12:22;;;;;;;2.00;1.20;;;;;;;17.26;52.67;99524.44;10103847;29;20279;-82
2022/09/14 11:18:06;;;;;;;3.42;0.73;;;;;;;17.40;51.45;99520.84;10127445;29;20224;-82
2022/09/14 11:23:50;;;;;;;3.00;0.90;;;;;;;17.90;49.98;99518.13;10159009;29;20225;-83
2022/09/14 11:29:29;;;;;;;2.97;1.13;;;;;;;17.98;49.75;99497.75;10151255;29;20248;-82
2022/09/14 11:35:00;;;;;;;4.17;1.23;;;;;;;17.37;52.18;99496.00;10172633;29;20205;-81
2022/09/14 11:40:27;;;;;;;5.60;1.40;;;;;;;17.92;50.82;99499.41;10156191;29;20264;-82
2022/09/14 11:45:57;;;;;;;3.03;1.25;;;;;;;18.26;49.25;99488.38;10163854;29;20434;-82
2022/09/14 11:51:24;;;;;;;1.90;0.73;;;;;;;18.24;48.09;99476.56;10153448;29;20204;-81
2022/09/14 11:56:48;;;;;;;2.65;0.90;;;;;;;17.83;49.20;99481.06;10166514;29;20240;-83
2022/09/14 12:02:22;;;;;;;3.30;0.80;;;;;;;17.46;50.90;99485.03;10162038;29;20252;-83
2022/09/14 12:07:49;;;;;;;1.70;0.67;;;;;;;17.89;48.63;99465.19;10165034;29;20217;-83
2022/09/14 12:13:20;;;;;;;3.13;0.80;;;;;;;17.35;49.48;99478.50;10166128;29;20233;-81
2022/09/14 12:18:55;;;;;;;2.40;0.63;;;;;;;17.95;50.20;99452.16;10168689;29;20205;-82
2022/09/14 12:24:20;;;;;;;3.70;0.70;;;;;;;17.39;51.21;99465.06;10158754;29;20220;-83
2022/09/14 12:29:42;;;;;;;3.17;0.83;;;;;;;18.30;49.98;99463.56;10174573;29;20251;-82
2022/09/14 12:35:36;;;;;;;1.37;0.53;;;;;;;17.66;50.43;99451.31;10164656;29;20229;-82
2022/09/14 12:41:14;;;;;;;1.43;0.83;;;;;;;17.73;51.84;99461.91;10134993;29;20513;-82
2022/09/14 12:46:37;;;;;;;4.73;1.10;;;;;;;18.40;49.88;99455.38;10138147;29;20236;-83
2022/09/14 12:52:04;;;;;;;2.28;1.10;;;;;;;18.38;49.31;99457.84;10150888;29;20222;-81
2022/09/14 12:57:50;;;;;;;2.22;0.90;;;;;;;18.76;48.93;99467.53;10102164;29;20338;-83
2022/09/14 13:03:23;;;;;;;2.63;1.33;;;;;;;18.19;50.08;99445.63;10169869;29;20506;-82
2022/09/14 13:08:48;;;;;;;2.95;2.20;;;;;;;17.87;50.40;99453.34;10162310;29;20213;-82
2022/09/14 13:14:15;;;;;;;5.95;2.45;;;;;;;18.31;50.32;99436.66;10173331;29;20273;-81
2022/09/14 13:19:37;;;;;;;3.35;2.05;;;;;;;18.40;50.63;99435.41;10173121;29;20252;-82
2022/09/14 13:25:00;;;;;;;6.35;2.55;;;;;;;18.09;51.23;99429.34;10163579;29;20236;-82
2022/09/14 13:30:24;;;;;;;3.40;1.73;;;;;;;18.54;49.23;99427.63;10165297;29;20293;-83
2022/09/14 13:35:51;;;;;;;2.90;1.42;;;;;;;17.85;50.48;99430.97;10127388;29;20302;-82
2022/09/14 13:41:15;;;;;;;3.65;2.35;;;;;;;18.65;48.54;99413.31;10142229;29;20221;-83
2022/09/14 13:46:38;;;;;;;4.30;2.35;;;;;;;17.78;52.48;99401.66;10103475;29;20233;-82
2022/09/14 13:52:22;;;;;;;4.72;3.05;;;;;;;17.92;52.59;99395.94;10131320;29;20287;-83
2022/09/14 13:58:09;;;;;;;4.30;2.92;;;;;;;18.81;49.60;99405.13;10142039;29;20235;-82
2022/09/14 14:03:48;;;;;;;5.18;3.03;;;;;;;18.49;48.69;99401.56;10133657;29;20200;-81
2022/09/14 14:09:10;;;;;;;3.03;2.33;;;;;;;18.27;51.98;99400.78;10142266;29;20272;-82
2022/09/14 14:14:32;;;;;;;5.35;2.40;;;;;;;18.45;50.70;99400.78;10124674;29;20569;-82
2022/09/14 14:19:57;;;;;;;5.07;1.80;;;;;;;18.38;50.87;99400.78;10116168;29;20220;-81
2022/09/14 14:25:31;;;;;;;5.82;2.28;;;;;;;18.50;50.36;99383.19;10115743;29;20252;-81
2022/09/14 14:30:55;;;;;;;5.83;2.10;;;;;;;18.61;51.40;99389.72;10120377;29;20642;-82
2022/09/14 14:36:18;;;;;;;5.00;2.30;;;;;;;18.30;50.54;99385.72;10101874;29;20237;-83
2022/09/14 14:41:40;;;;;;;3.25;2.15;;;;;;;17.80;52.02;99384.97;10126207;29;20208;-81
2022/09/14 14:47:04;;;;;;;6.00;3.03;;;;;;;18.25;51.99;99381.22;10136481;29;20248;-81
2022/09/14 14:52:26;;;;;;;5.63;2.55;;;;;;;18.87;49.29;99371.25;10164249;29;20192;-81
2022/09/14 14:57:49;;;;;;;3.13;1.65;;;;;;;18.12;52.84;99365.75;10159148;29;20248;-81
2022/09/14 15:03:12;;;;;;;3.70;1.90;;;;;;;18.87;51.14;99366.34;10157869;29;20204;-81
2022/09/14 15:08:34;;;;;;;3.75;2.47;;;;;;;19.19;50.34;99353.94;10161445;29;20240;-82
2022/09/14 15:13:56;;;;;;;4.43;3.05;;;;;;;19.11;49.83;99353.19;10135614;29;20224;-82
2022/09/14 15:19:19;;;;;;;3.53;2.20;;;;;;;18.55;50.38;99346.50;10137118;29;21118;-82
2022/09/14 15:24:40;;;;;;;3.08;2.58;;;;;;;18.46;51.50;99356.75;10116817;29;20261;-81
2022/09/14 15:30:04;;;;;;;3.17;1.90;;;;;;;18.57;50.02;99360.38;10142608;29;20248;-80
2022/09/14 15:35:27;;;;;;;4.10;2.63;;;;;;;19.07;50.71;99357.28;10113023;29;20283;-81
2022/09/14 15:40:49;;;;;;;4.30;2.20;;;;;;;18.90;49.80;99348.38;10105440;29;20237;-81
2022/09/14 15:46:11;;;;;;;3.15;2.40;;;;;;;19.02;50.99;99349.94;10118073;29;20275;-83
2022/09/14 15:51:33;;;;;;;4.10;2.73;;;;;;;19.07;49.87;99348.72;10129907;29;20240;-82
2022/09/14 15:56:58;;;;;;;5.97;2.80;;;;;;;18.64;51.56;99346.06;10119782;29;20249;-82
2022/09/14 16:02:21;;;;;;;4.95;3.05;;;;;;;18.68;52.42;99344.00;10147852;29;20602;-80
2022/09/14 16:07:43;;;;;;;5.37;2.27;;;;;;;18.61;51.29;99330.59;10123433;29;20682;-80
2022/09/14 16:13:05;;;;;;;2.53;2.13;;;;;;;18.78;51.27;99331.72;10136267;29;20253;-80
2022/09/14 16:18:28;;;;;;;5.00;2.47;;;;;;;18.81;50.64;99348.00;10138372;29;20196;-82
2022/09/14 16:23:52;;;;;;;2.80;2.40;;;;;;;18.93;49.90;99359.00;10135080;29;20256;-80
2022/09/14 16:29:16;;;;;;;4.93;3.17;;;;;;;18.56;51.45;99376.69;10137542;29;20240;-80
2022/09/14 16:34:38;;;;;;;7.27;2.87;;;;;;;19.10;49.19;99367.88;10127630;29;20201;-80
2022/09/14 16:40:01;;;;;;;5.60;3.10;;;;;;;18.85;50.02;99374.50;10152886;29;20217;-84
2022/09/14 16:45:23;;;;;;;10.43;4.80;;;;;;;19.03;49.55;99374.44;10135014;29;20193;-80
2022/09/14 16:50:51;;;;;;;7.07;5.20;;;;;;;19.04;49.79;99381.78;10142271;29;20316;-80
2022/09/14 16:56:22;;;;;;;7.68;4.50;;;;;;;18.68;50.15;99381.09;10111442;29;20555;-81
2022/09/14 17:01:45;;;;;;;7.43;5.18;;;;;;;18.46;50.78;99396.69;10122308;29;20284;-85
2022/09/14 17:07:07;;;;;;;7.33;5.83;;;;;;;18.41;50.83;99377.13;10130342;29;20288;-78
2022/09/14 17:12:29;;;;;;;9.90;6.73;;;;;;;18.12;51.85;99377.16;10129360;29;20288;-80
2022/09/14 17:17:51;;;;;;;13.02;7.60;;;;;;;18.43;51.78;99380.38;10124501;29;20252;-82
2022/09/14 17:23:13;;;;;;;15.45;8.48;;;;;;;18.41;52.02;99389.34;10155898;29;20248;-80
2022/09/14 17:28:37;;;;;;;16.47;8.57;;;;;;;18.92;50.01;99403.03;10162269;29;20220;-83
2022/09/14 17:34:00;;;;;;;16.27;9.43;;;;;;;18.20;50.98;99398.75;10133025;29;20556;-81
2022/09/14 17:39:22;;;;;;;12.70;8.57;;;;;;;18.17;51.69;99405.28;10159775;29;20333;-81
2022/09/14 17:44:44;;;;;;;11.02;7.78;;;;;;;18.07;51.25;99408.97;10155499;29;20693;-79
2022/09/14 17:50:07;;;;;;;14.93;8.82;;;;;;;17.44;53.74;99404.88;10148752;29;20307;-82
2022/09/14 17:55:31;;;;;;;10.67;7.93;;;;;;;17.93;52.32;99404.09;10142184;29;20999;-80
2022/09/14 18:01:20;;;;;;;11.87;9.33;;;;;;;18.13;51.32;99410.16;10137183;29;20323;-80
2022/09/14 18:06:44;;;;;;;13.55;9.45;;;;;;;17.78;51.92;99415.91;10148897;29;20232;-81
2022/09/14 18:12:09;;;;;;;13.83;8.60;;;;;;;18.40;50.34;99415.44;10146984;29;20247;-81
2022/09/14 18:17:31;;;;;;;9.23;7.57;;;;;;;18.20;50.42;99412.22;10153239;29;20714;-82
2022/09/14 18:22:54;;;;;;;9.90;6.63;;;;;;;18.33;49.95;99422.81;10108646;29;20634;-80
2022/09/14 18:28:16;;;;;;;10.87;6.97;;;;;;;18.27;49.83;99418.69;10134773;29;20248;-82
2022/09/14 18:33:38;;;;;;;8.07;7.30;;;;;;;17.67;51.50;99417.94;10131846;29;20281;-81
2022/09/14 18:39:01;;;;;;;8.68;7.20;;;;;;;17.42;53.47;99430.09;10149789;29;20229;-80
2022/09/14 18:44:23;;;;;;;9.47;6.90;;;;;;;17.68;51.80;99419.56;10155739;29;20205;-81
2022/09/14 18:49:45;;;;;;;9.10;7.37;;;;;;;17.81;51.45;99406.53;10147489;29;20220;-80
2022/09/14 18:55:08;;;;;;;10.37;7.13;;;;;;;17.90;50.70;99412.63;10144365;29;20192;-80
2022/09/14 19:00:31;;;;;;;12.30;7.30;;;;;;;17.93;50.36;99420.38;10148513;29;20198;-82
2022/09/14 19:05:53;;;;;;;9.67;7.60;;;;;;;17.55;51.49;99425.63;10132220;29;20255;-80
2022/09/14 19:11:19;;;;;;;10.53;7.87;;;;;;;17.58;51.22;99421.13;10130436;29;20342;-80
2022/09/14 19:16:42;;;;;;;13.00;7.97;;;;;;;17.79;50.82;99426.09;10126198;29;20224;-82
2022/09/14 19:22:04;;;;;;;11.20;7.77;;;;;;;17.12;52.52;99443.84;10130337;29;20228;-79
2022/09/14 19:27:27;;;;;;;9.57;7.27;;;;;;;17.76;50.84;99450.50;10146723;29;20264;-80
2022/09/14 19:32:49;;;;;;;11.53;8.33;;;;;;;17.81;50.53;99447.25;10146856;29;20192;-80
2022/09/14 19:38:11;;;;;;;14.47;9.07;;;;;;;17.28;51.84;99467.09;10131807;29;20277;-82
2022/09/14 19:43:34;;;;;;;10.27;8.13;;;;;;;17.25;51.73;99459.34;10124736;29;20240;-80
2022/09/14 19:48:56;;;;;;;11.07;8.70;;;;;;;17.66;50.87;99444.81;10114266;29;20252;-80
2022/09/14 19:54:18;;;;;;;10.67;8.27;;;;;;;17.79;50.85;99454.59;10128437;29;20205;-79
2022/09/14 19:59:41;;;;;;;12.03;9.73;;;;;;;17.94;50.27;99459.06;10129880;29;20209;-79
2022/09/14 20:05:07;;;;;;;12.35;8.82;;;;;;;17.46;51.09;99459.38;10141747;29;20204;-81
2022/09/14 20:10:29;;;;;;;11.23;8.33;;;;;;;17.81;49.95;99452.16;10147438;29;20315;-79
2022/09/14 20:15:51;;;;;;;10.37;8.37;;;;;;;17.42;51.43;99461.44;10159395;29;20253;-79
2022/09/14 20:21:17;;;;;;;12.63;9.13;;;;;;;17.65;51.00;99466.78;10151889;29;20262;-80
2022/09/14 20:26:40;;;;;;;11.83;9.60;;;;;;;17.35;52.38;99463.44;10146819;29;20226;-80
2022/09/14 20:32:04;;;;;;;13.07;9.90;;;;;;;17.08;51.85;99472.28;10133456;29;20253;-79
2022/09/14 20:37:27;;;;;;;11.20;9.80;;;;;;;17.83;50.48;99473.34;10131317;29;20208;-79
2022/09/14 20:42:49;;;;;;;15.95;10.85;;;;;;;17.55;51.12;99479.78;10145997;29;20275;-81
2022/09/14 20:48:11;;;;;;;13.53;10.90;;;;;;;17.03;52.00;99481.25;10146569;29;20595;-81
2022/09/14 20:53:38;;;;;;;19.20;11.17;;;;;;;17.25;51.80;99473.59;10124717;29;20253;-79
2022/09/14 20:59:04;;;;;;;14.10;9.60;;;;;;;17.20;50.46;99480.47;10134262;29;20292;-79
2022/09/14 21:04:26;;;;;;;15.13;10.53;;;;;;;17.16;51.49;99481.69;10143121;29;20267;-80
2022/09/14 21:09:48;;;;;;;15.63;10.93;;;;;;;16.87;52.35;99483.56;10161932;29;20260;-79
2022/09/14 21:15:10;;;;;;;12.73;9.93;;;;;;;16.97;50.70;99477.13;10168524;29;20224;-80
2022/09/14 21:20:36;;;;;;;11.18;9.60;;;;;;;16.60;52.22;99485.03;10163044;29;20229;-80
2022/09/14 21:25:58;;;;;;;11.93;9.40;;;;;;;16.58;51.49;99493.97;10139180;29;20257;-80
2022/09/14 21:31:21;;;;;;;11.35;10.13;;;;;;;16.78;51.46;99503.88;10142295;29;20281;-79
2022/09/14 21:36:46;;;;;;;14.87;10.73;;;;;;;17.07;50.88;99515.41;10136277;29;20269;-83
2022/09/14 21:42:08;;;;;;;12.20;9.10;;;;;;;17.08;50.44;99522.72;10144622;29;20263;-79
2022/09/14 21:47:30;;;;;;;14.60;10.80;;;;;;;17.12;50.44;99521.53;10145520;29;20715;-83
2022/09/14 21:52:52;;;;;;;15.68;11.98;;;;;;;16.89;50.71;99529.53;10159731;29;20248;-79
2022/09/14 21:58:14;;;;;;;17.70;13.63;;;;;;;16.92;50.71;99529.56;10120548;29;20221;-79
2022/09/14 22:03:37;;;;;;;16.60;12.13;;;;;;;16.67;51.97;99528.56;10138688;29;20197;-80
2022/09/14 22:09:00;;;;;;;15.67;12.73;;;;;;;16.60;52.26;99534.22;10143034;29;20264;-81
2022/09/14 22:14:27;;;;;;;18.30;12.30;;;;;;;16.96;50.76;99526.75;10132768;29;20284;-80
2022/09/14 22:19:51;;;;;;;16.53;12.93;;;;;;;17.18;50.35;99527.69;10119498;29;20280;-80
2022/09/14 22:25:13;;;;;;;17.33;12.27;;;;;;;17.03;50.74;99534.50;10156819;29;20277;-82
2022/09/14 22:30:35;;;;;;;15.60;12.20;;;;;;;17.16;51.50;99532.94;10130303;29;20217;-82
2022/09/14 22:35:59;;;;;;;19.73;12.43;;;;;;;16.85;51.97;99532.34;10125836;29;20202;-81
2022/09/14 22:41:22;;;;;;;16.83;12.63;;;;;;;17.21;51.13;99535.41;10131240;29;20197;-80
2022/09/14 22:46:44;;;;;;;15.90;11.70;;;;;;;17.28;51.13;99533.41;10124440;29;20630;-80
2022/09/14 22:52:06;;;;;;;16.10;12.30;;;;;;;17.12;51.01;99540.66;10136494;29;20249;-80
2022/09/14 22:57:28;;;;;;;17.37;11.93;;;;;;;17.08;51.37;99542.66;10136497;29;20229;-81
2022/09/14 23:02:50;;;;;;;15.07;11.30;;;;;;;16.96;51.54;99540.97;10130422;29;20201;-80
2022/09/14 23:08:13;;;;;;;15.13;12.80;;;;;;;16.97;51.76;99541.78;10140429;29;20205;-82
2022/09/14 23:13:39;;;;;;;15.70;12.80;;;;;;;16.64;52.89;99549.31;10119271;29;20269;-80
2022/09/14 23:19:03;;;;;;;16.73;11.57;;;;;;;16.86;52.31;99553.91;10123700;29;20205;-80
2022/09/14 23:24:25;;;;;;;15.73;11.67;;;;;;;16.24;54.25;99563.63;10116506;29;20356;-82
2022/09/14 23:29:47;;;;;;;16.60;12.83;;;;;;;16.54;53.70;99550.03;10163306;29;20280;-82
2022/09/14 23:35:10;;;;;;;18.63;13.33;;;;;;;17.01;52.32;99554.84;10169866;29;20602;-79
2022/09/14 23:40:32;;;;;;;18.33;14.37;;;;;;;17.36;50.71;99557.03;10172828;29;20205;-81
2022/09/14 23:45:54;;;;;;;17.43;13.10;;;;;;;16.52;53.58;99546.78;10175908;29;20229;-81
2022/09/14 23:51:17;;;;;;;19.00;14.77;;;;;;;17.03;51.63;99548.75;10127272;29;20285;-81
2022/09/14 23:56:39;;;;;;;20.33;15.00;;;;;;;17.34;50.75;99548.06;10129251;29;20233;-81
